createdAt,value
2018-12-20T00:02:21.526Z,90.10
2018-12-20T00:04:57.483Z,89.60
2018-12-20T00:07:33.608Z,89.80
2018-12-20T00:10:09.597Z,90.10
2018-12-20T00:12:46.023Z,90.10
2018-12-20T00:15:21.711Z,90.50
2018-12-20T00:17:57.804Z,91.00
2018-12-20T00:20:33.903Z,91.40
2018-12-20T00:23:09.940Z,90.50
2018-12-20T00:25:45.702Z,90.10
2018-12-20T00:28:21.913Z,90.30
2018-12-20T00:30:57.999Z,90.20
2018-12-20T00:33:34.161Z,90.10
2018-12-20T00:36:09.940Z,90.50
2018-12-20T00:38:46.041Z,90.80
2018-12-20T00:41:22.080Z,91.00
2018-12-20T00:43:57.993Z,91.00
2018-12-20T00:46:33.704Z,91.10
2018-12-20T00:49:09.484Z,91.10
2018-12-20T00:51:45.392Z,91.10
2018-12-20T00:54:21.645Z,91.10
2018-12-20T00:56:57.468Z,91.40
2018-12-20T00:59:33.199Z,91.40
2018-12-20T01:02:09.062Z,91.50
2018-12-20T01:04:45.620Z,91.70
2018-12-20T01:07:21.861Z,91.70
2018-12-20T01:09:57.628Z,91.70
2018-12-20T01:12:33.673Z,91.70
2018-12-20T01:15:10.151Z,91.70
2018-12-20T01:17:46.224Z,91.50
2018-12-20T01:20:22.265Z,91.80
2018-12-20T01:22:58.015Z,91.50
2018-12-20T01:25:33.718Z,91.10
2018-12-20T01:28:09.574Z,90.70
2018-12-20T01:30:45.296Z,91.10
2018-12-20T01:33:21.179Z,90.90
2018-12-20T01:35:56.992Z,91.00
2018-12-20T01:38:33.199Z,91.20
2018-12-20T01:41:08.912Z,91.70
2018-12-20T01:43:45.044Z,92.00
2018-12-20T01:46:21.405Z,92.00
2018-12-20T01:48:57.266Z,92.00
2018-12-20T01:51:33.440Z,91.90
2018-12-20T01:54:09.383Z,91.70
2018-12-20T01:56:45.286Z,91.70
2018-12-20T01:59:21.147Z,91.60
2018-12-20T02:01:57.459Z,91.40
2018-12-20T02:04:33.733Z,91.20
2018-12-20T02:07:09.710Z,91.10
2018-12-20T02:09:46.155Z,90.80
2018-12-20T02:12:22.621Z,90.70
2018-12-20T02:15:01.899Z,90.60
2018-12-20T02:17:37.137Z,91.00
2018-12-20T02:20:13.160Z,90.60
2018-12-20T02:22:49.001Z,90.90
2018-12-20T02:25:25.027Z,90.70
2018-12-20T02:28:01.241Z,91.10
2018-12-20T02:30:37.297Z,91.20
2018-12-20T02:33:13.031Z,91.10
2018-12-20T02:35:48.994Z,91.00
2018-12-20T02:38:24.824Z,91.10
2018-12-20T02:41:01.592Z,91.30
2018-12-20T02:43:37.299Z,90.90
2018-12-20T02:46:13.160Z,90.50
2018-12-20T02:48:49.469Z,90.10
2018-12-20T02:51:25.930Z,90.00
2018-12-20T02:54:01.956Z,89.50
2018-12-20T02:56:37.803Z,88.40
2018-12-20T02:59:13.920Z,89.00
2018-12-20T03:01:49.938Z,88.80
2018-12-20T03:04:26.072Z,88.90
2018-12-20T03:07:02.208Z,89.30
2018-12-20T03:09:38.023Z,89.70
2018-12-20T03:12:13.770Z,89.70
2018-12-20T03:14:49.782Z,90.20
2018-12-20T03:17:25.471Z,90.80
2018-12-20T03:20:01.586Z,90.80
2018-12-20T03:22:37.692Z,90.70
2018-12-20T03:25:13.448Z,90.50
2018-12-20T03:27:49.856Z,90.50
2018-12-20T03:30:25.824Z,90.50
2018-12-20T03:33:01.869Z,90.50
2018-12-20T03:35:38.115Z,90.50
2018-12-20T03:38:13.795Z,90.50
2018-12-20T03:40:49.998Z,90.50
2018-12-20T03:43:26.031Z,90.30
2018-12-20T03:46:01.827Z,90.40
2018-12-20T03:48:37.924Z,90.60
2018-12-20T03:51:13.734Z,90.70
2018-12-20T03:53:49.665Z,90.90
2018-12-20T03:56:25.586Z,91.20
2018-12-20T03:59:01.497Z,91.10
2018-12-20T04:01:37.386Z,90.90
2018-12-20T04:04:13.292Z,90.70
2018-12-20T04:06:49.482Z,90.70
2018-12-20T04:09:25.164Z,90.90
2018-12-20T04:12:00.837Z,90.50
2018-12-20T04:14:36.720Z,90.40
2018-12-20T04:17:12.430Z,90.40
2018-12-20T04:19:48.476Z,90.30
2018-12-20T04:22:24.831Z,90.00
2018-12-20T04:27:25.816Z,90.10
2018-12-20T04:30:01.738Z,89.60
2018-12-20T04:32:37.707Z,89.60
2018-12-20T04:35:13.760Z,89.50
2018-12-20T04:37:49.606Z,89.00
2018-12-20T04:40:26.003Z,89.00
2018-12-20T04:43:02.196Z,89.40
2018-12-20T04:45:46.450Z,88.80
2018-12-20T04:48:16.819Z,88.20
2018-12-20T04:50:53.039Z,88.60
2018-12-20T04:53:34.821Z,88.10
2018-12-20T04:56:20.405Z,87.90
2018-12-20T04:58:57.371Z,87.60
2018-12-20T05:01:33.317Z,86.80
2018-12-20T05:04:09.176Z,86.20
2018-12-20T05:06:45.191Z,87.10
2018-12-20T05:09:23.225Z,86.60
2018-12-20T05:12:01.555Z,86.70
2018-12-20T05:14:38.806Z,87.60
2018-12-20T05:17:14.584Z,87.30
2018-12-20T05:19:50.574Z,88.00
2018-12-20T05:22:26.822Z,86.50
2018-12-20T05:25:02.911Z,86.30
2018-12-20T05:27:39.184Z,85.90
2018-12-20T05:30:15.275Z,86.40
2018-12-20T05:32:51.345Z,86.60
2018-12-20T05:35:27.536Z,86.80
2018-12-20T05:38:03.348Z,86.50
2018-12-20T05:40:39.395Z,86.10
2018-12-20T05:43:15.375Z,85.70
2018-12-20T05:45:51.393Z,85.30
2018-12-20T05:48:27.375Z,84.40
2018-12-20T05:51:03.758Z,84.00
2018-12-20T05:53:39.828Z,83.60
2018-12-20T05:56:16.166Z,84.00
2018-12-20T05:58:52.247Z,83.90
2018-12-20T06:01:28.622Z,84.40
2018-12-20T06:04:05.022Z,84.30
2018-12-20T06:06:41.210Z,84.50
2018-12-20T06:09:17.090Z,84.60
2018-12-20T06:11:53.426Z,83.90
2018-12-20T06:14:42.679Z,84.20
2018-12-20T06:17:36.850Z,84.40
2018-12-20T06:20:25.631Z,84.40
2018-12-20T06:23:16.013Z,84.50
2018-12-20T06:26:06.834Z,84.60
2018-12-20T06:28:57.297Z,84.40
2018-12-20T06:31:46.815Z,84.20
2018-12-20T06:34:37.480Z,83.90
2018-12-20T06:37:29.126Z,83.80
2018-12-20T06:40:18.670Z,84.20
2018-12-20T06:43:27.402Z,84.40
2018-12-20T06:46:23.870Z,84.50
2018-12-20T06:49:12.651Z,85.30
2018-12-20T06:52:02.811Z,85.40
2018-12-20T06:54:58.886Z,85.70
2018-12-20T06:57:50.598Z,86.10
2018-12-20T07:00:46.503Z,86.30
2018-12-20T07:03:37.551Z,85.80
2018-12-20T07:06:33.180Z,86.20
2018-12-20T07:09:22.482Z,86.20
2018-12-20T07:12:21.785Z,86.30
2018-12-20T07:15:12.596Z,85.90
2018-12-20T07:18:03.318Z,85.40
2018-12-20T07:21:01.961Z,85.30
2018-12-20T07:24:03.122Z,85.00
2018-12-20T07:26:53.508Z,84.60
2018-12-20T07:29:40.064Z,84.10
2018-12-20T07:32:35.022Z,84.60
2018-12-20T07:35:26.124Z,84.60
2018-12-20T07:38:19.182Z,84.40
2018-12-20T07:41:11.130Z,84.20
2018-12-20T07:44:04.334Z,84.30
2018-12-20T07:46:58.348Z,84.60
2018-12-20T07:49:49.732Z,84.10
2018-12-20T07:52:39.489Z,84.60
2018-12-20T07:55:30.113Z,84.00
2018-12-20T07:58:19.705Z,83.40
2018-12-20T08:01:11.129Z,83.50
2018-12-20T08:04:00.128Z,83.50
2018-12-20T08:06:51.086Z,83.20
2018-12-20T08:09:37.858Z,82.20
2018-12-20T08:12:26.684Z,77.90
2018-12-20T08:15:03.713Z,71.70
2018-12-20T08:17:39.557Z,65.40
2018-12-20T08:20:15.319Z,59.90
2018-12-20T08:22:50.896Z,57.30
2018-12-20T08:25:26.596Z,55.80
2018-12-20T08:28:02.114Z,55.00
2018-12-20T08:30:37.725Z,58.50
2018-12-20T08:33:13.371Z,65.00
2018-12-20T08:35:49.129Z,69.00
2018-12-20T08:38:24.720Z,71.50
2018-12-20T08:41:00.280Z,72.40
2018-12-20T08:43:36.408Z,72.00
2018-12-20T08:46:12.193Z,71.60
2018-12-20T08:48:48.018Z,71.40
2018-12-20T08:51:24.156Z,71.90
2018-12-20T08:53:59.882Z,70.40
2018-12-20T08:56:35.524Z,70.40
2018-12-20T08:59:11.181Z,71.00
2018-12-20T09:01:56.128Z,70.10
2018-12-20T09:04:40.176Z,71.20
2018-12-20T09:07:29.381Z,70.90
2018-12-20T09:10:15.256Z,70.50
2018-12-20T09:12:57.858Z,70.40
2018-12-20T09:15:46.398Z,70.00
2018-12-20T09:18:35.579Z,66.90
2018-12-20T09:21:23.746Z,60.00
2018-12-20T09:24:11.516Z,58.30
2018-12-20T09:26:58.520Z,59.30
2018-12-20T09:29:35.587Z,62.70
2018-12-20T09:32:11.516Z,64.30
2018-12-20T09:34:47.428Z,66.60
2018-12-20T09:37:23.471Z,66.80
2018-12-20T09:39:59.552Z,66.40
2018-12-20T09:42:35.439Z,67.00
2018-12-20T09:45:11.754Z,67.40
2018-12-20T09:47:52.958Z,66.20
2018-12-20T09:50:29.081Z,66.10
2018-12-20T09:53:05.153Z,66.50
2018-12-20T09:55:42.100Z,64.70
2018-12-20T09:58:17.952Z,63.60
2018-12-20T10:00:54.443Z,62.80
2018-12-20T10:03:30.216Z,62.60
2018-12-20T10:06:06.167Z,62.80
2018-12-20T10:08:42.171Z,62.70
2018-12-20T10:11:19.600Z,63.30
2018-12-20T10:13:55.824Z,63.30
2018-12-20T10:16:32.661Z,63.90
2018-12-20T10:19:10.244Z,63.50
2018-12-20T10:21:46.325Z,61.60
2018-12-20T10:24:22.191Z,59.70
2018-12-20T10:26:58.240Z,60.70
2018-12-20T10:29:34.434Z,59.30
2018-12-20T10:32:17.182Z,59.00
2018-12-20T10:34:54.270Z,60.20
2018-12-20T10:37:30.148Z,60.80
2018-12-20T10:40:06.800Z,60.20
2018-12-20T10:42:42.563Z,59.90
2018-12-20T10:45:18.229Z,60.20
2018-12-20T10:47:53.988Z,60.40
2018-12-20T10:50:30.352Z,61.90
2018-12-20T10:53:07.489Z,59.50
2018-12-20T10:55:43.188Z,57.40
2018-12-20T10:58:21.393Z,53.80
2018-12-20T11:01:02.293Z,49.40
2018-12-20T11:03:43.116Z,46.00
2018-12-20T11:06:24.115Z,44.60
2018-12-20T11:09:05.772Z,47.00
2018-12-20T11:12:17.872Z,50.00
2018-12-20T11:14:53.568Z,53.40
2018-12-20T11:17:37.169Z,55.80
2018-12-20T11:20:07.788Z,57.20
2018-12-20T11:22:44.023Z,58.20
2018-12-20T11:25:20.223Z,59.30
2018-12-20T11:27:56.008Z,59.40
2018-12-20T11:30:31.862Z,59.10
2018-12-20T11:33:07.659Z,59.80
2018-12-20T11:35:43.356Z,60.80
2018-12-20T11:38:19.004Z,60.10
2018-12-20T11:40:55.043Z,59.60
2018-12-20T11:43:30.803Z,59.50
2018-12-20T11:46:06.554Z,58.20
2018-12-20T11:48:42.645Z,56.80
2018-12-20T11:51:18.567Z,56.60
2018-12-20T11:53:54.555Z,54.80
2018-12-20T11:56:30.478Z,53.30
2018-12-20T11:59:06.353Z,52.30
2018-12-20T12:01:42.424Z,50.70
2018-12-20T12:04:18.216Z,49.30
2018-12-20T12:06:53.931Z,46.40
2018-12-20T12:09:29.808Z,46.30
2018-12-20T12:12:05.613Z,48.70
2018-12-20T12:14:41.274Z,49.20
2018-12-20T12:17:16.692Z,49.40
2018-12-20T12:19:52.562Z,46.80
2018-12-20T12:22:28.311Z,47.00
2018-12-20T12:25:04.624Z,47.80
2018-12-20T12:27:40.437Z,49.90
2018-12-20T12:30:16.763Z,51.50
2018-12-20T12:32:52.339Z,52.80
2018-12-20T12:35:28.032Z,54.30
2018-12-20T12:38:03.900Z,55.10
2018-12-20T12:40:39.980Z,56.30
2018-12-20T12:43:15.948Z,57.00
2018-12-20T12:45:52.014Z,58.60
2018-12-20T12:48:27.755Z,58.40
2018-12-20T12:51:03.733Z,57.70
2018-12-20T12:53:39.480Z,55.80
2018-12-20T12:56:15.688Z,56.10
2018-12-20T12:58:51.769Z,56.50
2018-12-20T13:01:27.456Z,56.40
2018-12-20T13:04:03.536Z,56.80
2018-12-20T13:06:40.197Z,56.80
2018-12-20T13:09:16.235Z,57.30
2018-12-20T13:11:52.083Z,57.10
2018-12-20T13:14:29.332Z,56.60
2018-12-20T13:17:05.349Z,56.50
2018-12-20T13:19:42.430Z,56.20
2018-12-20T13:22:18.240Z,56.00
2018-12-20T13:24:53.911Z,56.90
2018-12-20T13:27:29.787Z,57.00
2018-12-20T13:30:09.261Z,57.30
2018-12-20T13:32:45.667Z,57.30
2018-12-20T13:35:21.495Z,58.20
2018-12-20T13:37:57.780Z,58.10
2018-12-20T13:40:33.560Z,57.70
2018-12-20T13:43:09.656Z,58.00
2018-12-20T13:45:45.585Z,58.00
2018-12-20T13:48:22.348Z,57.70
2018-12-20T13:50:58.655Z,58.00
2018-12-20T13:53:34.787Z,58.30
2018-12-20T13:56:10.928Z,59.10
2018-12-20T13:58:47.158Z,59.90
2018-12-20T14:01:23.116Z,59.50
2018-12-20T14:03:59.005Z,60.20
2018-12-20T14:06:34.724Z,61.30
2018-12-20T14:09:10.555Z,60.60
2018-12-20T14:11:46.572Z,61.30
2018-12-20T14:14:22.217Z,60.40
2018-12-20T14:16:58.270Z,59.50
2018-12-20T14:19:34.124Z,59.10
2018-12-20T14:22:09.888Z,59.40
2018-12-20T14:24:46.097Z,60.10
2018-12-20T14:27:21.988Z,59.70
2018-12-20T14:29:57.934Z,60.70
2018-12-20T14:32:33.972Z,64.60
2018-12-20T14:35:09.763Z,70.00
2018-12-20T14:37:45.620Z,69.70
2018-12-20T14:40:21.419Z,72.10
2018-12-20T14:42:57.672Z,74.40
2018-12-20T14:45:35.649Z,75.90
2018-12-20T14:48:17.466Z,77.30
2018-12-20T14:50:56.029Z,78.10
2018-12-20T14:53:33.099Z,76.20
2018-12-20T14:56:11.630Z,76.20
2018-12-20T14:58:50.447Z,77.40
2018-12-20T15:01:27.822Z,75.70
2018-12-20T15:04:04.935Z,76.80
2018-12-20T15:06:43.833Z,76.30
2018-12-20T15:09:19.799Z,75.50
2018-12-20T15:11:55.577Z,76.90
2018-12-20T15:14:31.315Z,76.00
2018-12-20T15:17:06.737Z,76.30
2018-12-20T15:19:42.381Z,77.60
2018-12-20T15:22:18.279Z,77.10
2018-12-20T15:24:54.224Z,77.50
2018-12-20T15:27:30.087Z,76.60
2018-12-20T15:30:06.948Z,76.00
2018-12-20T15:32:42.723Z,76.00
2018-12-20T15:35:18.556Z,75.20
2018-12-20T15:37:54.200Z,76.90
2018-12-20T15:40:29.902Z,74.80
2018-12-20T15:43:05.693Z,76.70
2018-12-20T15:45:41.516Z,74.50
2018-12-20T15:48:17.316Z,74.40
2018-12-20T15:50:52.966Z,73.80
2018-12-20T15:53:28.828Z,74.50
2018-12-20T15:56:04.595Z,75.00
2018-12-20T15:58:40.196Z,76.30
2018-12-20T16:01:15.935Z,76.20
2018-12-20T16:03:51.723Z,77.50
2018-12-20T16:06:27.816Z,77.50
2018-12-20T16:09:06.855Z,78.10
2018-12-20T16:11:43.611Z,78.00
2018-12-20T16:14:19.804Z,77.80
2018-12-20T16:16:55.371Z,78.70
2018-12-20T16:19:31.274Z,78.10
2018-12-20T16:22:07.198Z,79.40
2018-12-20T16:24:46.942Z,78.50
2018-12-20T16:27:22.828Z,79.90
2018-12-20T16:29:58.315Z,79.90
2018-12-20T16:32:35.064Z,79.10
2018-12-20T16:35:11.634Z,79.70
2018-12-20T16:37:47.292Z,80.30
2018-12-20T16:40:25.019Z,80.30
2018-12-20T16:43:00.860Z,80.10
2018-12-20T16:45:36.940Z,79.60
2018-12-20T16:48:14.815Z,80.30
2018-12-20T16:50:50.985Z,80.50
2018-12-20T16:53:26.732Z,79.50
2018-12-20T16:56:02.558Z,79.20
2018-12-20T16:58:38.237Z,79.10
2018-12-20T17:01:14.911Z,78.70
2018-12-20T17:03:50.685Z,78.20
2018-12-20T17:06:26.436Z,77.30
2018-12-20T17:09:02.014Z,76.40
2018-12-20T17:11:38.241Z,75.90
2018-12-20T17:14:14.014Z,75.70
2018-12-20T17:16:49.670Z,75.60
2018-12-20T17:19:25.507Z,75.60
2018-12-20T17:22:01.592Z,75.30
2018-12-20T17:24:37.305Z,74.90
2018-12-20T17:27:13.031Z,74.60
2018-12-20T17:29:48.776Z,74.20
2018-12-20T17:32:24.550Z,74.90
2018-12-20T17:35:00.316Z,74.70
2018-12-20T17:37:36.067Z,74.60
2018-12-20T17:40:11.709Z,75.20
2018-12-20T17:42:47.475Z,75.60
2018-12-20T17:45:23.037Z,74.80
2018-12-20T17:48:00.116Z,74.70
2018-12-20T17:50:42.204Z,75.10
2018-12-20T17:53:19.480Z,75.60
2018-12-20T17:55:55.651Z,75.80
2018-12-20T17:58:31.525Z,76.80
2018-12-20T18:01:07.382Z,76.90
2018-12-20T18:03:43.389Z,77.00
2018-12-20T18:06:19.433Z,76.20
2018-12-20T18:08:55.110Z,75.70
2018-12-20T18:11:30.995Z,76.90
2018-12-20T18:14:06.639Z,78.60
2018-12-20T18:16:42.765Z,78.50
2018-12-20T18:19:19.165Z,79.00
2018-12-20T18:21:54.933Z,79.40
2018-12-20T18:24:31.542Z,79.10
2018-12-20T18:27:07.382Z,79.20
2018-12-20T18:29:43.415Z,78.80
2018-12-20T18:32:19.455Z,79.50
2018-12-20T18:34:55.225Z,79.20
2018-12-20T18:37:31.447Z,79.50
2018-12-20T18:40:09.139Z,79.40
2018-12-20T18:42:45.362Z,79.50
2018-12-20T18:45:21.168Z,79.50
2018-12-20T18:47:57.004Z,80.10
2018-12-20T18:50:32.669Z,79.80
2018-12-20T18:53:08.497Z,79.70
2018-12-20T18:55:44.559Z,80.10
2018-12-20T18:58:20.276Z,78.60
2018-12-20T19:00:56.038Z,78.90
2018-12-20T19:03:31.920Z,77.90
2018-12-20T19:06:07.537Z,77.70
2018-12-20T19:08:43.382Z,76.80
2018-12-20T19:11:19.123Z,77.50
2018-12-20T19:13:55.167Z,78.70
2018-12-20T19:16:40.421Z,80.60
2018-12-20T19:19:16.430Z,78.90
2018-12-20T19:21:52.266Z,78.60
2018-12-20T19:24:28.137Z,78.90
2018-12-20T19:27:04.242Z,78.80
2018-12-20T19:29:40.215Z,78.10
2018-12-20T19:32:15.879Z,77.30
2018-12-20T19:34:52.591Z,77.80
2018-12-20T19:37:28.640Z,77.10
2018-12-20T19:40:08.283Z,77.30
2018-12-20T19:42:44.558Z,76.30
2018-12-20T19:45:20.744Z,76.40
2018-12-20T19:47:56.503Z,76.80
2018-12-20T19:50:32.365Z,78.10
2018-12-20T19:53:08.283Z,77.40
2018-12-20T19:55:44.115Z,77.90
2018-12-20T19:58:20.284Z,77.70
2018-12-20T20:00:56.236Z,78.70
2018-12-20T20:03:32.310Z,77.80
2018-12-20T20:06:08.007Z,77.40
2018-12-20T20:08:43.954Z,78.50
2018-12-20T20:11:20.192Z,79.40
2018-12-20T20:13:55.899Z,79.50
2018-12-20T20:16:31.669Z,79.20
2018-12-20T20:19:07.599Z,78.50
2018-12-20T20:21:43.875Z,77.90
2018-12-20T20:24:19.558Z,79.00
2018-12-20T20:26:55.817Z,78.00
2018-12-20T20:29:32.216Z,78.50
2018-12-20T20:32:07.889Z,79.00
2018-12-20T20:34:44.029Z,78.90
2018-12-20T20:37:20.008Z,79.30
2018-12-20T20:39:56.197Z,79.30
2018-12-20T20:42:32.221Z,79.70
2018-12-20T20:45:08.315Z,80.50
2018-12-20T20:47:44.394Z,80.50
2018-12-20T20:50:22.607Z,80.20
2018-12-20T20:52:57.852Z,79.90
2018-12-20T20:55:33.972Z,79.80
2018-12-20T20:58:09.916Z,79.80
2018-12-20T21:00:45.898Z,80.20
2018-12-20T21:03:22.179Z,79.80
2018-12-20T21:05:57.891Z,80.00
2018-12-20T21:08:33.749Z,80.30
2018-12-20T21:11:09.306Z,81.00
2018-12-20T21:13:44.984Z,81.80
2018-12-20T21:16:21.260Z,82.50
2018-12-20T21:18:57.046Z,82.90
2018-12-20T21:21:32.805Z,83.20
2018-12-20T21:24:08.438Z,83.10
2018-12-20T21:26:44.813Z,83.80
2018-12-20T21:29:20.701Z,82.60
2018-12-20T21:31:56.710Z,83.00
2018-12-20T21:34:32.466Z,82.80
2018-12-20T21:37:08.212Z,83.00
2018-12-20T21:39:43.956Z,82.70
2018-12-20T21:42:19.702Z,82.40
2018-12-20T21:44:55.730Z,81.90
2018-12-20T21:47:32.062Z,82.30
2018-12-20T21:50:11.009Z,81.30
2018-12-20T21:52:46.765Z,81.40
2018-12-20T21:55:22.459Z,81.30
2018-12-20T21:57:58.096Z,81.20
2018-12-20T22:00:34.123Z,81.20
2018-12-20T22:03:10.059Z,80.70
2018-12-20T22:05:45.682Z,80.70
2018-12-20T22:08:21.548Z,80.30
2018-12-20T22:10:57.615Z,80.30
2018-12-20T22:13:33.664Z,80.30
2018-12-20T22:16:09.340Z,80.60
2018-12-20T22:18:45.188Z,80.10
2018-12-20T22:21:20.907Z,79.90
2018-12-20T22:23:56.679Z,79.60
2018-12-20T22:26:32.367Z,79.70
2018-12-20T22:29:08.451Z,79.20
2018-12-20T22:31:44.484Z,79.00
2018-12-20T22:34:20.469Z,79.50
2018-12-20T22:36:56.314Z,78.90
2018-12-20T22:39:32.663Z,79.10
2018-12-20T22:42:08.459Z,79.30
2018-12-20T22:44:44.523Z,78.60
2018-12-20T22:47:20.611Z,79.30
2018-12-20T22:49:56.177Z,79.20
2018-12-20T22:52:32.547Z,79.30
2018-12-20T22:55:08.616Z,79.30
2018-12-20T22:57:44.507Z,79.50
2018-12-20T23:00:20.546Z,80.00
2018-12-20T23:02:56.819Z,79.60
2018-12-20T23:05:32.947Z,79.50
2018-12-20T23:08:08.597Z,80.10
2018-12-20T23:10:44.683Z,79.80
2018-12-20T23:13:20.431Z,79.60
2018-12-20T23:15:56.289Z,80.10
2018-12-20T23:18:32.661Z,80.00
2018-12-20T23:21:08.609Z,80.40
2018-12-20T23:23:44.346Z,80.40
2018-12-20T23:26:20.103Z,80.40
2018-12-20T23:28:56.560Z,80.60
2018-12-20T23:31:32.524Z,80.00
2018-12-20T23:34:08.367Z,80.10
2018-12-20T23:36:44.348Z,79.80
2018-12-20T23:39:20.068Z,79.40
2018-12-20T23:41:56.122Z,79.40
2018-12-20T23:44:31.980Z,79.40
2018-12-20T23:49:46.604Z,79.40
2018-12-20T23:52:22.336Z,79.50
2018-12-20T23:54:58.122Z,78.60
2018-12-20T23:57:33.859Z,78.70
